createdAt,value
2024-05-09T00:01:52.038Z,7.25
2024-05-09T00:04:39.696Z,5.93
2024-05-09T00:07:27.106Z,5.85
2024-05-09T00:10:22.488Z,5.90
2024-05-09T00:13:16.712Z,7.22
2024-05-09T00:16:04.427Z,7.05
2024-05-09T00:18:52.126Z,6.95
2024-05-09T00:21:45.393Z,7.72
2024-05-09T00:24:32.860Z,7.38
2024-05-09T00:27:21.118Z,8.43
2024-05-09T00:30:11.516Z,7.60
2024-05-09T00:33:02.327Z,7.63
2024-05-09T00:35:49.945Z,6.53
2024-05-09T00:38:37.429Z,7.32
2024-05-09T00:41:24.808Z,8.13
2024-05-09T00:44:12.285Z,6.63
2024-05-09T00:46:59.825Z,6.38
2024-05-09T00:49:47.124Z,6.88
2024-05-09T00:52:34.424Z,6.03
2024-05-09T00:55:21.667Z,6.22
2024-05-09T00:58:11.117Z,6.35
2024-05-09T01:03:38.451Z,6.95
2024-05-09T01:06:26.165Z,7.13
2024-05-09T01:09:13.540Z,7.93
2024-05-09T01:12:00.980Z,7.15
2024-05-09T01:14:48.298Z,7.50
2024-05-09T01:17:35.813Z,8.18
2024-05-09T01:20:32.091Z,7.85
2024-05-09T01:23:27.803Z,8.85
2024-05-09T01:26:15.246Z,7.07
2024-05-09T01:29:02.533Z,7.60
2024-05-09T01:31:51.883Z,7.72
2024-05-09T01:34:39.384Z,8.45
2024-05-09T01:37:26.652Z,8.38
2024-05-09T01:40:18.564Z,9.25
2024-05-09T01:43:11.418Z,9.60
2024-05-09T01:45:59.760Z,8.50
2024-05-09T01:48:47.145Z,8.38
2024-05-09T01:51:34.535Z,7.88
2024-05-09T01:54:21.790Z,8.13
2024-05-09T01:57:09.112Z,7.32
2024-05-09T01:59:56.481Z,7.78
2024-05-09T02:02:46.935Z,9.00
2024-05-09T02:05:34.689Z,6.85
2024-05-09T02:08:22.416Z,8.35
2024-05-09T02:11:10.883Z,7.80
2024-05-09T02:13:58.252Z,8.27
2024-05-09T02:16:45.640Z,9.30
2024-05-09T02:19:33.410Z,9.95
2024-05-09T02:22:20.765Z,10.00
2024-05-09T02:25:07.991Z,8.07
2024-05-09T02:27:55.442Z,7.55
2024-05-09T02:30:42.884Z,9.70
2024-05-09T02:33:31.392Z,11.85
2024-05-09T02:36:18.909Z,9.48
2024-05-09T02:39:06.159Z,10.48
2024-05-09T02:41:53.370Z,9.68
2024-05-09T02:44:43.871Z,8.45
2024-05-09T02:47:31.517Z,8.35
2024-05-09T02:50:26.603Z,8.20
2024-05-09T02:53:21.471Z,9.18
2024-05-09T02:56:08.763Z,8.98
2024-05-09T02:58:57.040Z,8.43
2024-05-09T03:01:45.432Z,8.90
2024-05-09T03:04:32.893Z,9.57
2024-05-09T03:07:20.426Z,8.95
2024-05-09T03:10:18.036Z,7.82
2024-05-09T03:13:13.203Z,7.80
2024-05-09T03:16:02.056Z,10.27
2024-05-09T03:18:49.452Z,8.35
2024-05-09T03:21:43.206Z,8.55
2024-05-09T03:24:30.445Z,8.90
2024-05-09T03:27:18.344Z,7.93
2024-05-09T03:30:07.637Z,7.60
2024-05-09T03:32:55.344Z,9.55
2024-05-09T03:35:44.013Z,9.68
2024-05-09T03:38:32.130Z,10.68
2024-05-09T03:41:19.940Z,8.95
2024-05-09T03:44:08.085Z,11.43
2024-05-09T03:46:55.535Z,11.05
2024-05-09T03:49:42.878Z,10.27
2024-05-09T03:52:30.110Z,9.07
2024-05-09T03:55:17.381Z,9.20
2024-05-09T03:58:05.239Z,8.80
2024-05-09T04:03:41.722Z,8.80
2024-05-09T04:06:29.080Z,10.10
2024-05-09T04:09:16.407Z,10.07
2024-05-09T04:12:04.213Z,10.27
2024-05-09T04:14:51.525Z,11.50
2024-05-09T04:17:39.219Z,9.82
2024-05-09T04:23:17.142Z,13.60
2024-05-09T04:26:04.949Z,10.15
2024-05-09T04:28:52.512Z,10.15
2024-05-09T04:31:39.812Z,12.85
2024-05-09T04:34:27.222Z,13.20
2024-05-09T04:37:14.517Z,11.20
2024-05-09T04:40:01.841Z,10.75
2024-05-09T04:42:49.602Z,11.43
2024-05-09T04:45:36.942Z,9.88
2024-05-09T04:48:24.538Z,9.68
2024-05-09T04:51:11.963Z,9.52
2024-05-09T04:53:59.449Z,9.82
2024-05-09T04:56:46.903Z,8.88
2024-05-09T04:59:34.687Z,8.57
2024-05-09T05:02:22.221Z,9.30
2024-05-09T05:05:11.237Z,10.57
2024-05-09T05:07:59.640Z,9.10
2024-05-09T05:10:48.380Z,9.88
2024-05-09T05:13:39.441Z,9.80
2024-05-09T05:16:28.391Z,9.98
2024-05-09T05:19:17.575Z,10.43
2024-05-09T05:22:05.426Z,9.43
2024-05-09T05:24:52.791Z,9.10
2024-05-09T05:27:40.772Z,9.05
2024-05-09T05:30:32.806Z,8.43
2024-05-09T05:33:23.130Z,9.20
2024-05-09T05:36:11.128Z,10.27
2024-05-09T05:38:58.492Z,9.15
2024-05-09T05:41:45.919Z,8.65
2024-05-09T05:44:33.554Z,7.90
2024-05-09T05:47:21.086Z,8.85
2024-05-09T05:50:20.468Z,9.07
2024-05-09T05:53:14.456Z,8.77
2024-05-09T05:56:01.903Z,8.10
2024-05-09T05:58:49.525Z,8.65
2024-05-09T06:01:36.878Z,8.38
2024-05-09T06:04:24.269Z,8.50
2024-05-09T06:07:11.675Z,8.23
2024-05-09T06:09:59.064Z,8.38
2024-05-09T06:12:46.440Z,8.05
2024-05-09T06:15:33.774Z,8.25
2024-05-09T06:18:21.577Z,7.97
2024-05-09T06:21:09.499Z,8.45
2024-05-09T06:23:56.851Z,7.38
2024-05-09T06:26:44.242Z,7.32
2024-05-09T06:29:31.787Z,8.90
2024-05-09T06:32:19.479Z,7.75
2024-05-09T06:35:07.430Z,8.23
2024-05-09T06:37:54.893Z,8.25
2024-05-09T06:40:43.986Z,7.47
2024-05-09T06:43:32.291Z,7.47
2024-05-09T06:46:19.625Z,8.45
2024-05-09T06:49:09.252Z,7.57
2024-05-09T06:51:56.651Z,8.07
2024-05-09T06:54:44.025Z,7.00
2024-05-09T06:57:31.532Z,7.82
2024-05-09T07:03:46.738Z,6.78
2024-05-09T07:09:21.350Z,6.70
2024-05-09T07:12:08.880Z,6.05
2024-05-09T07:14:56.381Z,6.15
2024-05-09T07:17:43.731Z,7.32
2024-05-09T07:20:34.637Z,7.35
2024-05-09T07:23:22.808Z,7.70
2024-05-09T07:26:10.217Z,6.78
2024-05-09T07:28:57.675Z,6.53
2024-05-09T07:31:45.234Z,6.72
2024-05-09T07:42:55.041Z,6.28
2024-05-09T07:45:50.829Z,6.38
2024-05-09T07:53:08.751Z,6.07
2024-05-09T07:54:39.911Z,6.68
2024-05-09T07:57:27.515Z,7.40
2024-05-09T08:00:20.374Z,6.40
2024-05-09T08:03:14.831Z,6.60
2024-05-09T08:06:02.284Z,6.18
2024-05-09T08:08:49.867Z,6.20
2024-05-09T08:11:37.266Z,6.45
2024-05-09T08:14:24.754Z,5.43
2024-05-09T08:17:12.791Z,5.85
2024-05-09T08:20:01.005Z,5.90
2024-05-09T08:22:49.165Z,6.15
2024-05-09T08:25:36.635Z,5.82
2024-05-09T08:28:24.155Z,5.95
2024-05-09T08:31:11.923Z,5.43
2024-05-09T08:33:59.332Z,5.68
2024-05-09T08:36:46.996Z,6.15
2024-05-09T08:39:34.376Z,6.28
2024-05-09T08:42:22.819Z,5.78
2024-05-09T08:45:10.780Z,5.97
2024-05-09T08:47:58.189Z,5.90
2024-05-09T08:50:46.006Z,6.40
2024-05-09T08:53:33.573Z,5.85
2024-05-09T08:56:21.577Z,5.55
2024-05-09T08:59:10.017Z,5.25
2024-05-09T09:01:57.463Z,5.18
2024-05-09T09:05:06.728Z,5.20
2024-05-09T09:07:54.296Z,5.25
2024-05-09T09:10:42.032Z,5.05
2024-05-09T09:13:29.431Z,4.43
2024-05-09T09:19:05.158Z,4.65
2024-05-09T09:21:52.625Z,5.05
2024-05-09T09:27:27.446Z,4.93
2024-05-09T09:33:22.679Z,4.55
2024-05-09T09:36:13.780Z,5.13
2024-05-09T09:39:01.309Z,4.88
2024-05-09T09:41:48.684Z,5.25
2024-05-09T09:44:39.488Z,4.80
2024-05-09T09:47:27.570Z,4.88
2024-05-09T09:50:20.369Z,5.07
2024-05-09T09:53:10.963Z,5.00
2024-05-09T09:55:59.470Z,4.53
2024-05-09T09:58:46.928Z,5.40
2024-05-09T10:03:49.793Z,4.80
2024-05-09T10:06:40.514Z,4.55
2024-05-09T10:09:27.986Z,4.65
2024-05-09T10:12:15.430Z,4.43
2024-05-09T10:15:11.587Z,4.83
2024-05-09T10:18:06.695Z,4.80
2024-05-09T10:20:54.735Z,4.35
2024-05-09T10:24:04.210Z,4.05
2024-05-09T10:26:53.179Z,4.32
2024-05-09T10:29:51.176Z,4.22
2024-05-09T10:32:39.492Z,4.63
2024-05-09T10:38:14.381Z,4.30
2024-05-09T10:41:01.814Z,4.47
2024-05-09T10:43:49.238Z,4.18
2024-05-09T10:46:36.574Z,4.57
2024-05-09T10:49:24.052Z,4.10
2024-05-09T10:52:11.587Z,3.93
2024-05-09T10:55:00.362Z,4.47
2024-05-09T10:57:48.481Z,3.83
2024-05-09T11:00:37.021Z,4.03
2024-05-09T11:03:25.026Z,4.25
2024-05-09T11:06:14.321Z,4.30
2024-05-09T11:09:01.781Z,3.97
2024-05-09T11:11:49.209Z,4.10
2024-05-09T11:14:36.661Z,4.00
2024-05-09T11:17:24.151Z,3.97
2024-05-09T11:20:17.085Z,3.92
2024-05-09T11:23:10.600Z,4.00
2024-05-09T11:25:58.443Z,3.88
2024-05-09T11:28:46.234Z,3.78
2024-05-09T11:31:35.554Z,3.75
2024-05-09T11:34:23.011Z,3.75
2024-05-09T11:37:13.995Z,3.70
2024-05-09T11:40:01.476Z,4.13
2024-05-09T11:42:51.499Z,4.10
2024-05-09T11:45:40.627Z,3.60
2024-05-09T11:48:28.347Z,4.00
2024-05-09T11:51:15.913Z,3.60
2024-05-09T11:54:03.332Z,3.93
2024-05-09T11:56:51.981Z,3.70
2024-05-09T11:59:39.378Z,3.90
2024-05-09T12:02:26.834Z,4.22
2024-05-09T12:05:14.715Z,4.23
2024-05-09T12:08:02.365Z,4.00
2024-05-09T12:10:50.039Z,3.88
2024-05-09T12:13:37.659Z,3.50
2024-05-09T12:16:25.503Z,3.80
2024-05-09T12:19:12.959Z,3.63
2024-05-09T12:22:00.458Z,3.50
2024-05-09T12:24:47.781Z,3.80
2024-05-09T12:27:36.655Z,3.67
2024-05-09T12:30:32.822Z,3.60
2024-05-09T12:33:25.434Z,3.33
2024-05-09T12:36:12.960Z,3.47
2024-05-09T12:39:00.205Z,3.57
2024-05-09T12:41:47.642Z,3.40
2024-05-09T12:44:35.053Z,3.30
2024-05-09T12:47:22.606Z,3.57
2024-05-09T12:50:18.935Z,3.08
2024-05-09T12:53:12.480Z,3.20
2024-05-09T12:56:02.327Z,3.28
2024-05-09T12:58:51.428Z,3.10
2024-05-09T13:03:39.326Z,3.20
2024-05-09T13:06:26.802Z,2.80
2024-05-09T13:09:14.099Z,3.20
2024-05-09T13:12:01.543Z,3.25
2024-05-09T13:14:49.028Z,3.20
2024-05-09T13:17:36.492Z,2.93
2024-05-09T13:20:31.337Z,3.00
2024-05-09T13:23:20.889Z,2.90
2024-05-09T13:26:08.225Z,2.90
2024-05-09T13:28:55.554Z,2.92
2024-05-09T13:31:42.873Z,3.20
2024-05-09T13:34:30.286Z,3.30
2024-05-09T13:37:17.695Z,3.30
2024-05-09T13:40:07.251Z,2.85
2024-05-09T13:42:54.965Z,3.00
2024-05-09T13:45:42.918Z,3.30
2024-05-09T13:48:30.534Z,3.40
2024-05-09T13:51:17.939Z,3.00
2024-05-09T13:54:05.251Z,3.13
2024-05-09T13:56:52.690Z,3.10
2024-05-09T13:59:40.058Z,2.90
2024-05-09T14:02:27.457Z,2.92
2024-05-09T14:05:15.477Z,3.23
2024-05-09T14:08:03.386Z,3.10
2024-05-09T14:10:50.863Z,3.40
2024-05-09T14:13:38.625Z,3.37
2024-05-09T14:16:26.304Z,3.10
2024-05-09T14:19:13.952Z,3.10
2024-05-09T14:22:01.460Z,3.08
2024-05-09T14:24:49.016Z,3.23
2024-05-09T14:27:39.338Z,2.80
2024-05-09T14:30:34.690Z,3.20
2024-05-09T14:33:27.148Z,3.30
2024-05-09T14:36:14.494Z,3.03
2024-05-09T14:39:02.122Z,2.83
2024-05-09T14:41:52.596Z,3.33
2024-05-09T14:44:39.909Z,3.10
2024-05-09T14:47:27.439Z,3.40
2024-05-09T14:50:23.684Z,3.33
2024-05-09T14:53:16.235Z,3.30
2024-05-09T14:56:03.606Z,3.30
2024-05-09T14:58:51.242Z,3.35
2024-05-09T15:01:38.623Z,3.63
2024-05-09T15:04:27.238Z,3.83
2024-05-09T15:07:14.746Z,3.72
2024-05-09T15:10:02.579Z,3.53
2024-05-09T15:12:49.974Z,3.58
2024-05-09T15:15:37.508Z,3.88
2024-05-09T15:18:25.094Z,3.77
2024-05-09T15:21:12.844Z,3.60
2024-05-09T15:24:00.500Z,3.70
2024-05-09T15:26:47.875Z,3.30
2024-05-09T15:29:35.304Z,3.63
2024-05-09T15:32:22.731Z,3.35
2024-05-09T15:35:10.616Z,3.10
2024-05-09T15:37:58.010Z,3.53
2024-05-09T15:40:45.695Z,3.40
2024-05-09T15:43:33.521Z,3.28
2024-05-09T15:46:21.039Z,3.60
2024-05-09T15:49:09.021Z,3.33
2024-05-09T15:51:56.395Z,3.40
2024-05-09T15:54:43.842Z,3.60
2024-05-09T15:57:31.225Z,3.72
2024-05-09T16:03:43.311Z,3.70
2024-05-09T16:06:30.816Z,3.75
2024-05-09T16:09:18.381Z,3.67
2024-05-09T16:12:06.346Z,3.75
2024-05-09T16:14:53.762Z,3.92
2024-05-09T16:17:41.275Z,3.67
2024-05-09T16:20:38.010Z,3.95
2024-05-09T16:23:29.471Z,3.70
2024-05-09T16:26:16.811Z,3.78
2024-05-09T16:29:04.398Z,3.72
2024-05-09T16:31:51.763Z,3.83
2024-05-09T16:34:39.248Z,3.63
2024-05-09T16:37:29.449Z,3.90
2024-05-09T16:40:25.516Z,3.80
2024-05-09T16:43:21.710Z,4.07
2024-05-09T16:46:09.242Z,4.03
2024-05-09T16:48:56.889Z,3.80
2024-05-09T16:51:44.362Z,4.15
2024-05-09T16:54:31.967Z,4.00
2024-05-09T16:57:19.255Z,4.00
2024-05-09T17:00:14.546Z,3.90
2024-05-09T17:03:06.792Z,3.58
2024-05-09T17:05:54.921Z,3.90
2024-05-09T17:08:44.150Z,3.50
2024-05-09T17:11:31.533Z,3.90
2024-05-09T17:14:19.053Z,4.03
2024-05-09T17:17:08.391Z,4.20
2024-05-09T17:19:55.793Z,3.72
2024-05-09T17:22:43.096Z,3.88
2024-05-09T17:25:30.433Z,3.70
2024-05-09T17:28:17.856Z,3.55
2024-05-09T17:31:05.537Z,3.80
2024-05-09T17:33:53.290Z,4.00
2024-05-09T17:36:41.079Z,3.55
2024-05-09T17:39:28.462Z,3.42
2024-05-09T17:42:15.783Z,4.15
2024-05-09T17:45:03.411Z,3.92
2024-05-09T17:47:50.974Z,3.67
2024-05-09T17:50:39.398Z,3.60
2024-05-09T17:56:15.510Z,3.97
2024-05-09T17:59:02.949Z,3.53
2024-05-09T18:01:50.460Z,3.88
2024-05-09T18:04:37.967Z,3.67
2024-05-09T18:07:25.468Z,3.92
2024-05-09T18:10:19.180Z,3.83
2024-05-09T18:13:13.215Z,4.00
2024-05-09T18:16:00.976Z,3.63
2024-05-09T18:18:48.366Z,4.00
2024-05-09T18:21:35.953Z,3.95
2024-05-09T18:24:23.329Z,3.95
2024-05-09T18:27:10.662Z,3.75
2024-05-09T18:29:58.067Z,4.10
2024-05-09T18:32:45.674Z,3.72
2024-05-09T18:35:33.437Z,3.80
2024-05-09T18:38:25.797Z,4.18
2024-05-09T18:41:13.119Z,3.60
2024-05-09T18:44:00.585Z,3.95
2024-05-09T18:46:48.090Z,4.03
2024-05-09T18:49:36.460Z,3.92
2024-05-09T18:52:24.702Z,3.72
2024-05-09T18:55:12.776Z,3.30
2024-05-09T18:58:00.287Z,3.38
2024-05-09T19:03:48.754Z,3.40
2024-05-09T19:06:36.668Z,3.53
2024-05-09T19:09:24.199Z,3.47
2024-05-09T19:12:11.773Z,3.70
2024-05-09T19:14:59.203Z,3.50
2024-05-09T19:17:48.572Z,3.22
2024-05-09T19:20:36.939Z,4.03
2024-05-09T19:23:25.170Z,3.60
2024-05-09T19:26:12.666Z,3.80
2024-05-09T19:28:59.981Z,3.60
2024-05-09T19:31:47.449Z,3.95
2024-05-09T19:34:34.883Z,3.60
2024-05-09T19:37:22.343Z,4.15
2024-05-09T19:40:14.878Z,3.80
2024-05-09T19:43:09.345Z,4.03
2024-05-09T19:45:57.076Z,4.03
2024-05-09T19:48:44.645Z,4.03
2024-05-09T19:51:32.069Z,3.90
2024-05-09T19:54:19.603Z,4.00
2024-05-09T19:57:06.994Z,3.58
2024-05-09T19:59:54.409Z,3.90
2024-05-09T20:02:41.837Z,3.80
2024-05-09T20:05:31.460Z,3.83
2024-05-09T20:08:18.965Z,4.13
2024-05-09T20:11:06.337Z,4.15
2024-05-09T20:13:53.658Z,4.10
2024-05-09T20:16:41.357Z,4.07
2024-05-09T20:19:28.934Z,4.20
2024-05-09T20:22:16.486Z,4.20
2024-05-09T20:25:04.188Z,4.28
2024-05-09T20:27:51.565Z,4.07
2024-05-09T20:30:39.018Z,4.22
2024-05-09T20:33:27.366Z,4.30
2024-05-09T20:36:14.749Z,4.30
2024-05-09T20:39:02.093Z,4.20
2024-05-09T20:41:49.522Z,4.20
2024-05-09T20:44:36.935Z,4.18
2024-05-09T20:47:24.521Z,4.13
2024-05-09T20:50:23.020Z,4.03
2024-05-09T20:53:16.345Z,3.70
2024-05-09T20:56:03.792Z,4.20
2024-05-09T20:58:51.141Z,3.83
2024-05-09T21:01:38.611Z,3.72
2024-05-09T21:04:26.359Z,4.00
2024-05-09T21:07:13.871Z,4.30
2024-05-09T21:10:01.348Z,4.47
2024-05-09T21:12:48.827Z,4.40
2024-05-09T21:15:36.577Z,4.40
2024-05-09T21:18:24.229Z,3.67
2024-05-09T21:21:11.637Z,3.50
2024-05-09T21:23:59.008Z,3.80
2024-05-09T21:26:46.382Z,4.05
2024-05-09T21:29:33.820Z,4.30
2024-05-09T21:32:21.382Z,4.00
2024-05-09T21:35:08.679Z,3.80
2024-05-09T21:37:56.090Z,4.28
2024-05-09T21:40:43.793Z,4.60
2024-05-09T21:43:31.682Z,4.10
2024-05-09T21:46:19.482Z,4.45
2024-05-09T21:49:07.095Z,4.93
2024-05-09T21:51:54.470Z,4.85
2024-05-09T21:54:41.870Z,4.95
2024-05-09T21:57:29.247Z,4.45
2024-05-09T22:03:37.673Z,5.20
2024-05-09T22:06:25.084Z,4.60
2024-05-09T22:09:12.362Z,4.90
2024-05-09T22:12:00.112Z,4.97
2024-05-09T22:14:48.429Z,4.80
2024-05-09T22:17:35.833Z,4.67
2024-05-09T22:20:32.761Z,4.55
2024-05-09T22:23:24.203Z,5.10
2024-05-09T22:26:11.741Z,5.00
2024-05-09T22:28:59.107Z,4.13
2024-05-09T22:31:46.418Z,4.30
2024-05-09T22:34:33.858Z,4.40
2024-05-09T22:37:21.435Z,5.43
2024-05-09T22:40:12.560Z,4.93
2024-05-09T22:43:03.187Z,4.80
2024-05-09T22:45:50.788Z,5.13
2024-05-09T22:48:38.450Z,4.38
2024-05-09T22:51:25.995Z,4.93
2024-05-09T22:54:13.461Z,5.07
2024-05-09T22:57:01.094Z,5.00
2024-05-09T22:59:48.387Z,4.82
2024-05-09T23:02:35.936Z,5.20
2024-05-09T23:05:23.500Z,5.10
2024-05-09T23:08:10.783Z,4.70
2024-05-09T23:10:58.314Z,5.00
2024-05-09T23:13:45.799Z,4.88
2024-05-09T23:16:33.260Z,4.90
2024-05-09T23:19:20.693Z,4.65
2024-05-09T23:22:08.004Z,4.20
2024-05-09T23:24:55.494Z,4.60
2024-05-09T23:27:42.921Z,4.85
2024-05-09T23:30:37.402Z,5.25
2024-05-09T23:33:27.439Z,5.25
2024-05-09T23:36:14.787Z,5.10
2024-05-09T23:39:02.293Z,5.35
2024-05-09T23:41:49.675Z,4.97
2024-05-09T23:44:36.906Z,5.80
2024-05-09T23:47:24.323Z,5.60
2024-05-09T23:50:16.938Z,5.70
2024-05-09T23:53:11.538Z,5.13
2024-05-09T23:55:58.917Z,4.85
2024-05-09T23:58:46.725Z,4.63
